OIFS  Shahrekord Airport

Add Bookmark

Shahrekord, Iran

Status IATA
Operational CQD
Latitude Longitude
32° 17' 49" N 50° 50' 31" E
32.297199 50.842201
Local (DST + 5) UTC (GMT + 4)
Dec 20, 2014 10:55 Dec 20, 2014 19:25
Sunrise-Sunset Local UTC
Begin Civil Twilight 06:34 03:04
Sunrise 07:01 03:31
Sunset 05:06 13:36
End Civil Twilight 05:33 14:03

Current Weather

METAR Observed VFR
OIFS 201900Z 21012KT 9999 FEW040 SCT200 06/M04 Q1020 Sat, Dec 20, 2014 @ 19:00 UTC
(25 Minutes ago)
Visual Flight Rules
Wind Visibility Clouds Conditions
210° at 12 knots (22 kph) 10 km or more
  • Few at 4,000' AGL
  • Scattered at 20,000' AGL
  • No significant weather
Temperatures Readings Precipitation
Current Temp 6°C (43°F)
Dewpoint -4°C (25°F)
Humidity 49%
Altimeter 30.12"Hg
Sea Level Pressure 1020mb
Field Elevation 6817.59'
None Recorded

Additional weather within a 185.2km radius of OIFS

Map ICAO Location
OIFM 108km E (062°)

24 Hour Weather History

Loading
-

24 Hour Weather Graphs

Loading
-

CheckWX.com is intended as a tool to help pilots better visualize weather data. It is not intended as a substitute for an official weather briefing obtained from a Flight Service Station. CheckWX.com does not meet the FAA requirements for an official pre-flight weather briefing. Therefore, it's important that pilots still call and obtain an official FSS pre-flight weather briefing.